Montevallo, Alabama
Current Conditions -  °F | °C
As of 8:22 AM on Sunday 23 Nov 2014 (Local Time) from KEET Reporting Station
Haze Haze  
Wind Chill: 60°   Ceiling: 400
Heat Index: 60°   Visibility: 2mi
Dew Point: 58°   Wind: 3mph
Humidity: 93%   Direction: NA
Pressure: 29.86"   Gusts: NA
Location:  33.1°N, 86.86°W
Report Text: KEET 231422Z AUTO VRB03KT 2SM BR OVC004 16/14 A2986 RMK AO2 RAE19 P0000 T01560144
Loading
Personal Weather Stations






























Interactive Weather Map New forecast layout! Learn more

10-Day Weather Forecast

Advertisements
Track Severe Weather on mobile